createdAt,value
2017-03-05T00:00:35.241Z,991.95
2017-03-05T00:01:44.722Z,992.05
2017-03-05T00:02:54.583Z,991.99
2017-03-05T00:04:04.430Z,992.03
2017-03-05T00:05:13.131Z,992.04
2017-03-05T00:06:22.992Z,992.04
2017-03-05T00:07:32.868Z,992.05
2017-03-05T00:08:42.342Z,992.08
2017-03-05T00:09:52.603Z,992.15
2017-03-05T00:11:02.456Z,992.18
2017-03-05T00:12:12.325Z,992.08
2017-03-05T00:13:22.186Z,992.17
2017-03-05T00:14:31.684Z,992.18
2017-03-05T00:15:40.792Z,992.2
2017-03-05T00:16:49.888Z,992.21
2017-03-05T00:18:00.144Z,992.2
2017-03-05T00:19:10.018Z,992.18
2017-03-05T00:20:19.881Z,992.07
2017-03-05T00:21:30.123Z,992.08
2017-03-05T00:22:39.216Z,991.99
2017-03-05T00:23:49.061Z,991.89
2017-03-05T00:24:58.583Z,991.92
2017-03-05T00:26:08.449Z,991.85
2017-03-05T00:27:17.520Z,991.85
2017-03-05T00:28:27.376Z,993.77
2017-03-05T00:29:37.254Z,993.74
2017-03-05T00:30:47.092Z,993.69
2017-03-05T00:31:57.332Z,993.72
2017-03-05T00:33:06.425Z,993.84
2017-03-05T00:34:15.901Z,993.82
2017-03-05T00:35:25.378Z,993.89
2017-03-05T00:36:34.091Z,993.88
2017-03-05T00:37:43.574Z,993.91
2017-03-05T00:38:52.285Z,993.94
2017-03-05T00:40:01.371Z,993.83
2017-03-05T00:41:10.842Z,993.83
2017-03-05T00:42:20.693Z,993.84
2017-03-05T00:43:29.783Z,993.91
2017-03-05T00:44:38.481Z,993.84
2017-03-05T00:45:48.712Z,993.83
2017-03-05T00:46:57.825Z,993.83
2017-03-05T00:48:07.738Z,993.85
2017-03-05T00:49:17.576Z,993.86
2017-03-05T00:50:27.434Z,993.87
2017-03-05T00:51:36.532Z,993.91
2017-03-05T00:52:45.987Z,993.93
2017-03-05T00:53:54.677Z,993.95
2017-03-05T00:55:03.785Z,993.94
2017-03-05T00:56:12.866Z,994.01
2017-03-05T00:57:21.954Z,994.1
2017-03-05T00:58:32.197Z,994.11
2017-03-05T00:59:41.667Z,994.23
2017-03-05T01:00:52.281Z,994.34
2017-03-05T01:02:01.399Z,994.57
2017-03-05T01:03:10.862Z,994.64
2017-03-05T01:04:20.724Z,994.61
2017-03-05T01:05:29.826Z,994.59
2017-03-05T01:06:39.324Z,994.53
2017-03-05T01:07:49.554Z,994.46
2017-03-05T01:08:58.652Z,994.43
2017-03-05T01:10:08.497Z,994.36
2017-03-05T01:11:18.347Z,994.32
2017-03-05T01:12:28.194Z,994.22
2017-03-05T01:13:37.296Z,994.21
2017-03-05T01:14:47.563Z,994.15
2017-03-05T01:15:56.269Z,994.17
2017-03-05T01:17:04.973Z,994.09
2017-03-05T01:18:14.065Z,994
2017-03-05T01:19:22.778Z,993.94
2017-03-05T01:20:32.624Z,993.94
2017-03-05T01:21:41.697Z,994
2017-03-05T01:22:51.171Z,993.97
2017-03-05T01:24:00.662Z,994.01
2017-03-05T01:25:10.127Z,994.2
2017-03-05T01:26:19.587Z,994.45
2017-03-05T01:27:28.295Z,994.55
2017-03-05T01:28:38.174Z,994.7
2017-03-05T01:29:48.425Z,994.89
2017-03-05T01:30:57.512Z,994.92
2017-03-05T01:32:06.611Z,994.85
2017-03-05T01:33:16.490Z,994.87
2017-03-05T01:34:25.604Z,994.81
2017-03-05T01:35:34.695Z,994.79
2017-03-05T01:36:43.787Z,994.74
2017-03-05T01:37:52.484Z,994.71
2017-03-05T01:39:02.708Z,994.71
2017-03-05T01:40:12.184Z,994.65
2017-03-05T01:41:21.267Z,994.61
2017-03-05T01:42:30.758Z,994.58
2017-03-05T01:43:40.650Z,994.59
2017-03-05T01:44:50.129Z,994.5
2017-03-05T01:45:59.621Z,994.47
2017-03-05T01:47:08.341Z,994.4
2017-03-05T01:48:17.063Z,994.46
2017-03-05T01:49:27.318Z,994.46
2017-03-05T01:50:36.409Z,994.52
2017-03-05T01:51:46.669Z,994.74
2017-03-05T01:52:57.279Z,994.84
2017-03-05T01:54:06.743Z,994.93
2017-03-05T01:55:16.600Z,994.93
2017-03-05T01:56:25.707Z,994.98
2017-03-05T01:57:35.565Z,995.01
2017-03-05T01:58:44.259Z,994.93
2017-03-05T01:59:53.752Z,994.78
2017-03-05T02:01:02.461Z,994.78
2017-03-05T02:02:12.326Z,994.7
2017-03-05T02:03:22.573Z,994.75
2017-03-05T02:04:31.664Z,994.66
2017-03-05T02:05:41.122Z,994.7
2017-03-05T02:06:50.997Z,994.63
2017-03-05T02:08:00.466Z,994.63
2017-03-05T02:09:09.964Z,994.6
2017-03-05T02:10:19.804Z,994.56
2017-03-05T02:11:29.291Z,994.57
2017-03-05T02:12:38.384Z,994.45
2017-03-05T02:13:48.610Z,994.36
2017-03-05T02:14:58.090Z,994.31
2017-03-05T02:16:07.545Z,994.3
2017-03-05T02:17:16.642Z,994.44
2017-03-05T02:18:26.125Z,994.42
2017-03-05T02:19:35.588Z,994.42
2017-03-05T02:20:45.061Z,994.47
2017-03-05T02:21:54.929Z,994.49
2017-03-05T02:23:04.446Z,994.37
2017-03-05T02:24:13.942Z,994.41
2017-03-05T02:25:23.414Z,994.25
2017-03-05T02:26:33.266Z,994.19
2017-03-05T02:27:43.507Z,994.19
2017-03-05T02:28:53.345Z,994.16
2017-03-05T02:30:02.805Z,994.17
2017-03-05T02:31:12.663Z,994.19
2017-03-05T02:32:21.758Z,994.26
2017-03-05T02:33:31.598Z,994.22
2017-03-05T02:34:40.708Z,994.18
2017-03-05T02:35:50.177Z,994.14
2017-03-05T02:37:00.040Z,994.14
2017-03-05T02:38:10.294Z,994.12
2017-03-05T02:39:20.524Z,994.18
2017-03-05T02:40:30.778Z,994.19
2017-03-05T02:41:40.236Z,994.24
2017-03-05T02:42:49.317Z,994.24
2017-03-05T02:43:58.413Z,994.31
2017-03-05T02:45:08.291Z,994.5
2017-03-05T02:46:16.982Z,994.64
2017-03-05T02:47:26.455Z,994.87
2017-03-05T02:48:36.700Z,995.06
2017-03-05T02:49:46.547Z,995.23
2017-03-05T02:50:56.017Z,995.38
2017-03-05T02:52:05.485Z,994.44
2017-03-05T02:53:15.335Z,994.4
2017-03-05T02:54:25.977Z,994.42
2017-03-05T02:55:35.461Z,994.41
2017-03-05T02:56:45.304Z,994.44
2017-03-05T02:57:55.171Z,994.51
2017-03-05T02:59:04.626Z,994.5
2017-03-05T03:00:14.077Z,994.55
2017-03-05T03:01:23.937Z,994.55
2017-03-05T03:02:33.804Z,994.56
2017-03-05T03:03:43.285Z,994.53
2017-03-05T03:04:53.144Z,994.55
2017-03-05T03:06:02.252Z,994.61
2017-03-05T03:07:12.104Z,994.58
2017-03-05T03:08:20.810Z,994.59
2017-03-05T03:09:30.285Z,994.62
2017-03-05T03:10:39.756Z,994.63
2017-03-05T03:11:48.845Z,994.61
2017-03-05T03:12:58.315Z,994.61
2017-03-05T03:14:08.563Z,994.65
2017-03-05T03:15:18.425Z,994.68
2017-03-05T03:16:27.889Z,994.66
2017-03-05T03:17:37.370Z,994.68
2017-03-05T03:18:47.237Z,994.67
2017-03-05T03:19:57.447Z,994.63
2017-03-05T03:21:06.916Z,994.69
2017-03-05T03:22:15.998Z,994.65
2017-03-05T03:23:26.224Z,994.76
2017-03-05T03:24:35.698Z,994.72
2017-03-05T03:25:45.173Z,994.79
2017-03-05T03:26:54.999Z,994.79
2017-03-05T03:28:04.834Z,994.73
2017-03-05T03:29:14.689Z,994.78
2017-03-05T03:30:23.773Z,994.83
2017-03-05T03:31:33.219Z,994.8
2017-03-05T03:32:42.676Z,994.84
2017-03-05T03:33:52.506Z,994.86
2017-03-05T03:35:01.579Z,994.91
2017-03-05T03:36:10.279Z,994.94
2017-03-05T03:37:19.735Z,994.88
2017-03-05T03:38:28.835Z,994.96
2017-03-05T03:39:38.301Z,994.88
2017-03-05T03:40:48.153Z,994.94
2017-03-05T03:41:57.988Z,994.91
2017-03-05T03:43:07.852Z,994.94
2017-03-05T03:44:17.296Z,994.92
2017-03-05T03:45:27.117Z,995
2017-03-05T03:46:36.216Z,994.94
2017-03-05T03:47:46.474Z,994.98
2017-03-05T03:48:55.957Z,995.03
2017-03-05T03:50:05.066Z,995.05
2017-03-05T03:51:14.134Z,995.11
2017-03-05T03:52:23.245Z,995.15
2017-03-05T03:53:33.088Z,995.15
2017-03-05T03:54:42.549Z,995.11
2017-03-05T03:55:51.997Z,995.15
2017-03-05T03:57:02.585Z,995.1
2017-03-05T03:58:12.035Z,995.14
2017-03-05T03:59:21.130Z,995.19
2017-03-05T04:00:30.974Z,995.16
2017-03-05T04:01:40.047Z,995.18
2017-03-05T04:02:49.498Z,995.22
2017-03-05T04:03:58.950Z,995.21
2017-03-05T04:05:09.180Z,995.14
2017-03-05T04:06:17.880Z,995.13
2017-03-05T04:07:27.718Z,995.14
2017-03-05T04:08:36.786Z,995.22
2017-03-05T04:09:46.624Z,995.19
2017-03-05T04:10:56.077Z,995.19
2017-03-05T04:12:06.716Z,995.21
2017-03-05T04:13:16.190Z,995.21
2017-03-05T04:14:24.898Z,995.21
2017-03-05T04:15:33.977Z,995.21
2017-03-05T04:16:43.035Z,995.21
2017-03-05T04:17:52.484Z,995.28
2017-03-05T04:19:02.696Z,995.26
2017-03-05T04:20:12.167Z,995.26
2017-03-05T04:21:21.622Z,995.34
2017-03-05T04:22:30.312Z,995.39
2017-03-05T04:23:40.173Z,995.4
2017-03-05T04:24:48.876Z,995.41
2017-03-05T04:25:58.347Z,995.5
2017-03-05T04:27:08.176Z,995.43
2017-03-05T04:28:17.263Z,995.42
2017-03-05T04:29:25.978Z,995.4
2017-03-05T04:30:35.843Z,995.46
2017-03-05T04:31:45.679Z,995.48
2017-03-05T04:32:54.768Z,995.48
2017-03-05T04:34:04.600Z,995.56
2017-03-05T04:35:13.664Z,995.55
2017-03-05T04:36:23.901Z,995.53
2017-03-05T04:37:33.357Z,995.52
2017-03-05T04:38:43.207Z,995.57
2017-03-05T04:39:52.301Z,995.49
2017-03-05T04:41:02.141Z,995.53
2017-03-05T04:42:11.230Z,995.55
2017-03-05T04:43:20.297Z,995.53
2017-03-05T04:44:30.135Z,995.63
2017-03-05T04:45:39.616Z,995.62
2017-03-05T04:46:49.467Z,995.65
2017-03-05T04:47:59.301Z,995.65
2017-03-05T04:49:08.012Z,995.68
2017-03-05T04:50:17.080Z,995.66
2017-03-05T04:51:26.148Z,995.62
2017-03-05T04:52:35.666Z,995.62
2017-03-05T04:53:45.527Z,995.62
2017-03-05T04:54:54.980Z,995.69
2017-03-05T04:56:04.449Z,995.71
2017-03-05T04:57:13.530Z,995.67
2017-03-05T04:58:22.978Z,995.61
2017-03-05T04:59:33.188Z,995.59
2017-03-05T05:00:42.269Z,995.59
2017-03-05T05:01:52.093Z,995.65
2017-03-05T05:03:01.540Z,995.7
2017-03-05T05:04:11.380Z,995.65
2017-03-05T05:05:21.229Z,995.64
2017-03-05T05:06:30.303Z,995.69
2017-03-05T05:07:39.404Z,995.68
2017-03-05T05:08:49.239Z,995.72
2017-03-05T05:09:59.075Z,995.65
2017-03-05T05:11:08.528Z,995.73
2017-03-05T05:12:17.977Z,995.75
2017-03-05T05:13:27.462Z,995.86
2017-03-05T05:14:36.534Z,995.87
2017-03-05T05:15:45.607Z,995.81
2017-03-05T05:16:54.692Z,995.81
2017-03-05T05:18:03.396Z,995.82
2017-03-05T05:19:12.852Z,995.9
2017-03-05T05:20:22.309Z,995.88
2017-03-05T05:21:31.745Z,995.89
2017-03-05T05:22:41.209Z,995.89
2017-03-05T05:23:50.670Z,995.9
2017-03-05T05:25:00.504Z,995.94
2017-03-05T05:26:09.979Z,995.95
2017-03-05T05:27:19.803Z,995.92
2017-03-05T05:28:29.258Z,995.99
2017-03-05T05:29:38.724Z,996
2017-03-05T05:30:47.792Z,995.9
2017-03-05T05:31:56.864Z,995.93
2017-03-05T05:33:06.721Z,996.07
2017-03-05T05:34:16.198Z,996.03
2017-03-05T05:35:25.276Z,996.04
2017-03-05T05:36:33.967Z,996.1
2017-03-05T05:37:43.462Z,996.14
2017-03-05T05:38:52.945Z,996.15
2017-03-05T05:40:02.043Z,996.09
2017-03-05T05:41:11.118Z,996.19
2017-03-05T05:42:20.574Z,996.11
2017-03-05T05:43:30.791Z,996.14
2017-03-05T05:44:40.237Z,996.17
2017-03-05T05:45:49.301Z,996.22
2017-03-05T05:46:58.389Z,996.27
2017-03-05T05:48:07.463Z,996.27
2017-03-05T05:49:16.917Z,996.24
2017-03-05T05:50:26.373Z,996.25
2017-03-05T05:51:36.235Z,996.33
2017-03-05T05:52:45.311Z,996.34
2017-03-05T05:53:54.756Z,996.37
2017-03-05T05:55:04.228Z,996.35
2017-03-05T05:56:14.076Z,996.43
2017-03-05T05:57:23.548Z,996.47
2017-03-05T05:58:33.369Z,996.44
2017-03-05T05:59:42.833Z,996.45
2017-03-05T06:00:52.296Z,996.46
2017-03-05T06:02:01.770Z,996.38
2017-03-05T06:03:11.994Z,996.55
2017-03-05T06:04:21.462Z,996.53
2017-03-05T06:05:31.682Z,996.48
2017-03-05T06:06:41.135Z,996.55
2017-03-05T06:07:50.200Z,996.57
2017-03-05T06:08:59.650Z,996.56
2017-03-05T06:10:09.094Z,996.63
2017-03-05T06:11:18.930Z,996.53
2017-03-05T06:12:28.789Z,996.6
2017-03-05T06:13:38.253Z,996.63
2017-03-05T06:14:48.082Z,996.59
2017-03-05T06:15:57.937Z,996.62
2017-03-05T06:17:07.765Z,996.65
2017-03-05T06:18:16.851Z,996.61
2017-03-05T06:19:26.334Z,996.71
2017-03-05T06:20:35.014Z,996.74
2017-03-05T06:21:44.852Z,996.78
2017-03-05T06:22:53.953Z,996.74
2017-03-05T06:24:03.793Z,996.79
2017-03-05T06:25:12.863Z,996.81
2017-03-05T06:26:22.302Z,996.8
2017-03-05T06:27:31.389Z,996.81
2017-03-05T06:28:41.254Z,996.85
2017-03-05T06:29:51.105Z,996.84
2017-03-05T06:31:00.934Z,996.87
2017-03-05T06:32:11.163Z,996.84
2017-03-05T06:33:20.618Z,996.92
2017-03-05T06:34:29.699Z,996.92
2017-03-05T06:35:39.168Z,996.9
2017-03-05T06:36:49.405Z,997.01
2017-03-05T06:37:58.852Z,996.94
2017-03-05T06:39:07.938Z,996.94
2017-03-05T06:40:17.403Z,996.85
2017-03-05T06:41:26.473Z,996.93
2017-03-05T06:42:35.557Z,996.92
2017-03-05T06:43:45.391Z,996.97
2017-03-05T06:44:54.859Z,996.88
2017-03-05T06:46:04.728Z,996.99
2017-03-05T06:47:13.813Z,997.05
2017-03-05T06:48:23.283Z,997.03
2017-03-05T06:49:32.754Z,997.03
2017-03-05T06:50:41.819Z,997.08
2017-03-05T06:51:51.269Z,997.12
2017-03-05T06:53:01.527Z,997.04
2017-03-05T06:54:11.365Z,997.06
2017-03-05T06:55:20.877Z,997.15
2017-03-05T06:56:30.347Z,997.11
2017-03-05T06:57:40.195Z,997.15
2017-03-05T06:58:49.277Z,997.12
2017-03-05T06:59:58.739Z,997.12
2017-03-05T07:01:08.584Z,997.14
2017-03-05T07:02:18.433Z,997.14
2017-03-05T07:03:27.890Z,997.13
2017-03-05T07:04:37.752Z,997.2
2017-03-05T07:05:47.579Z,997.19
2017-03-05T07:06:57.409Z,997.18
2017-03-05T07:08:07.250Z,997.1
2017-03-05T07:09:16.321Z,997.22
2017-03-05T07:10:25.405Z,997.16
2017-03-05T07:11:34.871Z,997.17
2017-03-05T07:12:45.484Z,997.23
2017-03-05T07:13:54.950Z,997.19
2017-03-05T07:15:04.795Z,997.24
2017-03-05T07:16:14.625Z,997.22
2017-03-05T07:17:23.716Z,997.24
2017-03-05T07:18:32.798Z,997.26
2017-03-05T07:19:41.877Z,997.23
2017-03-05T07:20:51.730Z,997.19
2017-03-05T07:22:01.569Z,997.28
2017-03-05T07:23:11.021Z,997.26
2017-03-05T07:24:20.850Z,997.25
2017-03-05T07:25:30.321Z,997.31
2017-03-05T07:26:39.780Z,997.3
2017-03-05T07:27:49.649Z,997.29
2017-03-05T07:28:59.105Z,997.33
2017-03-05T07:30:08.956Z,997.41
2017-03-05T07:31:18.010Z,997.37
2017-03-05T07:32:27.093Z,997.34
2017-03-05T07:33:35.779Z,997.37
2017-03-05T07:34:45.287Z,997.3
2017-03-05T07:35:54.746Z,997.38
2017-03-05T07:37:04.598Z,997.45
2017-03-05T07:38:14.067Z,997.39
2017-03-05T07:39:23.526Z,997.37
2017-03-05T07:40:32.994Z,997.55
2017-03-05T07:41:42.854Z,997.52
2017-03-05T07:42:52.324Z,997.47
2017-03-05T07:44:01.035Z,997.48
2017-03-05T07:45:10.497Z,997.43
2017-03-05T07:46:19.189Z,997.37
2017-03-05T07:47:28.671Z,997.38
2017-03-05T07:48:38.132Z,997.42
2017-03-05T07:49:48.730Z,997.46
2017-03-05T07:50:57.808Z,997.42
2017-03-05T07:52:06.886Z,997.33
2017-03-05T07:53:16.350Z,997.29
2017-03-05T07:54:26.181Z,997.37
2017-03-05T07:55:35.641Z,997.37
2017-03-05T07:56:44.733Z,997.44
2017-03-05T07:57:54.186Z,997.41
2017-03-05T07:59:04.058Z,997.41
2017-03-05T08:00:13.901Z,997.42
2017-03-05T08:01:22.988Z,997.44
2017-03-05T08:02:32.071Z,997.41
2017-03-05T08:03:41.527Z,997.53
2017-03-05T08:04:51.401Z,997.59
2017-03-05T08:06:01.652Z,997.67
2017-03-05T08:07:11.154Z,997.56
2017-03-05T08:08:20.633Z,997.43
2017-03-05T08:09:29.733Z,997.46
2017-03-05T08:10:39.962Z,997.5
2017-03-05T08:11:49.822Z,997.47
2017-03-05T08:12:59.276Z,997.53
2017-03-05T08:14:09.102Z,997.46
2017-03-05T08:15:18.184Z,997.47
2017-03-05T08:16:27.647Z,997.5
2017-03-05T08:17:37.139Z,997.45
2017-03-05T08:18:46.993Z,997.48
2017-03-05T08:19:56.833Z,997.55
2017-03-05T08:21:06.672Z,997.5
2017-03-05T08:22:15.748Z,997.48
2017-03-05T08:23:25.204Z,997.51
2017-03-05T08:24:34.693Z,997.43
2017-03-05T08:25:44.184Z,997.39
2017-03-05T08:26:53.274Z,997.38
2017-03-05T08:28:01.983Z,997.4
2017-03-05T08:29:11.449Z,997.5
2017-03-05T08:30:20.900Z,997.34
2017-03-05T08:31:30.752Z,997.4
2017-03-05T08:32:40.976Z,997.35
2017-03-05T08:33:50.838Z,997.36
2017-03-05T08:35:00.299Z,997.4
2017-03-05T08:36:08.993Z,997.43
2017-03-05T08:37:18.454Z,997.36
2017-03-05T08:38:27.534Z,997.35
2017-03-05T08:39:37.367Z,997.32
2017-03-05T08:40:47.215Z,997.25
2017-03-05T08:41:57.039Z,997.32
2017-03-05T08:43:05.762Z,997.27
2017-03-05T08:44:15.983Z,997.27
2017-03-05T08:45:25.440Z,997.32
2017-03-05T08:46:34.929Z,997.25
2017-03-05T08:47:44.414Z,997.27
2017-03-05T08:48:53.498Z,997.31
2017-03-05T08:50:03.705Z,997.21
2017-03-05T08:51:13.186Z,997.19
2017-03-05T08:52:23.037Z,997.19
2017-03-05T08:53:32.885Z,997.22
2017-03-05T08:54:42.342Z,997.28
2017-03-05T08:55:51.417Z,997.26
2017-03-05T08:57:01.633Z,997.28
2017-03-05T08:58:11.100Z,997.14
2017-03-05T08:59:20.557Z,997.29
2017-03-05T09:00:29.637Z,997.36
2017-03-05T09:01:39.471Z,997.23
2017-03-05T09:02:48.940Z,997.29
2017-03-05T09:03:58.419Z,997.35
2017-03-05T09:05:08.315Z,997.27
2017-03-05T09:06:17.387Z,997.24
2017-03-05T09:07:26.853Z,997.28
2017-03-05T09:08:37.092Z,997.33
2017-03-05T09:09:46.941Z,997.32
2017-03-05T09:10:55.644Z,997.21
2017-03-05T09:12:05.518Z,997.24
2017-03-05T09:13:14.600Z,997.26
2017-03-05T09:14:24.080Z,997.27
2017-03-05T09:15:33.160Z,997.22
2017-03-05T09:16:42.618Z,997.11
2017-03-05T09:17:51.712Z,997.33
2017-03-05T09:19:01.577Z,997.38
2017-03-05T09:20:11.035Z,997.31
2017-03-05T09:21:20.506Z,997.22
2017-03-05T09:22:29.583Z,997.26
2017-03-05T09:23:38.656Z,997.23
2017-03-05T09:24:47.737Z,997.14
2017-03-05T09:25:56.813Z,997.01
2017-03-05T09:27:05.894Z,997.02
2017-03-05T09:28:15.357Z,997.29
2017-03-05T09:29:24.437Z,996.99
2017-03-05T09:30:33.521Z,997.33
2017-03-05T09:31:42.611Z,997.26
2017-03-05T09:32:51.685Z,997.09
2017-03-05T09:34:01.152Z,997.21
2017-03-05T09:35:10.632Z,997.37
2017-03-05T09:36:19.753Z,997.34
2017-03-05T09:37:28.833Z,997.32
2017-03-05T09:38:39.066Z,997.13
2017-03-05T09:39:48.537Z,997.17
2017-03-05T09:40:57.613Z,997.17
2017-03-05T09:42:07.474Z,997.12
2017-03-05T09:43:16.577Z,997.15
2017-03-05T09:44:26.045Z,997.12
2017-03-05T09:45:35.512Z,997.21
2017-03-05T09:46:44.968Z,997.12
2017-03-05T09:47:54.824Z,997.16
2017-03-05T09:49:03.908Z,997.22
2017-03-05T09:50:13.012Z,997.3
2017-03-05T09:51:22.487Z,997.33
2017-03-05T09:52:31.575Z,997.24
2017-03-05T09:53:41.065Z,997.24
2017-03-05T09:54:50.961Z,997.24
2017-03-05T09:56:01.199Z,996.99
2017-03-05T09:57:10.661Z,997.12
2017-03-05T09:58:19.752Z,996.92
2017-03-05T09:59:28.850Z,997.17
2017-03-05T10:00:38.306Z,997.09
2017-03-05T10:01:47.394Z,997.22
2017-03-05T10:02:56.851Z,997.22
2017-03-05T10:04:06.324Z,997.01
2017-03-05T10:05:15.817Z,997.28
2017-03-05T10:06:24.526Z,998.02
2017-03-05T10:07:34.013Z,997.14
2017-03-05T10:08:43.497Z,997.34
2017-03-05T10:09:52.588Z,997.06
2017-03-05T10:11:01.678Z,996.99
2017-03-05T10:12:11.532Z,996.87
2017-03-05T10:13:20.990Z,997.13
2017-03-05T10:14:30.455Z,996.92
2017-03-05T10:15:39.535Z,996.86
2017-03-05T10:16:49.013Z,996.93
2017-03-05T10:17:58.468Z,997.21
2017-03-05T10:19:07.147Z,996.95
2017-03-05T10:20:16.629Z,997.28
2017-03-05T10:21:26.469Z,997.55
2017-03-05T10:22:35.550Z,997.49
2017-03-05T10:23:45.042Z,997.39
2017-03-05T10:24:55.290Z,997.08
2017-03-05T10:26:05.126Z,997.28
2017-03-05T10:27:15.375Z,997.14
2017-03-05T10:28:24.454Z,996.81
2017-03-05T10:29:34.281Z,997.18
2017-03-05T10:30:43.354Z,997.17
2017-03-05T10:31:52.832Z,996.95
2017-03-05T10:33:02.316Z,997.06
2017-03-05T10:34:11.778Z,996.96
2017-03-05T10:35:22.029Z,996.93
2017-03-05T10:36:31.880Z,997.01
2017-03-05T10:37:41.768Z,996.95
2017-03-05T10:38:51.248Z,996.97
2017-03-05T10:40:00.363Z,996.92
2017-03-05T10:41:10.208Z,996.85
2017-03-05T10:42:19.679Z,996.78
2017-03-05T10:43:28.751Z,996.8
2017-03-05T10:44:37.833Z,996.8
2017-03-05T10:45:47.310Z,996.81
2017-03-05T10:46:57.194Z,996.8
2017-03-05T10:48:06.673Z,996.8
2017-03-05T10:49:16.519Z,996.65
2017-03-05T10:50:26.014Z,996.73
2017-03-05T10:51:36.243Z,996.74
2017-03-05T10:52:46.883Z,996.77
2017-03-05T10:53:55.577Z,996.7
2017-03-05T10:55:05.420Z,996.77
2017-03-05T10:56:15.259Z,996.64
2017-03-05T10:57:24.347Z,996.75
2017-03-05T10:58:33.809Z,996.77
2017-03-05T10:59:44.037Z,996.83
2017-03-05T11:00:53.122Z,996.8
2017-03-05T11:02:02.954Z,996.58
2017-03-05T11:03:12.431Z,996.51
2017-03-05T11:04:21.153Z,996.81
2017-03-05T11:05:30.619Z,996.75
2017-03-05T11:06:39.315Z,996.64
2017-03-05T11:07:48.390Z,996.58
2017-03-05T11:08:58.617Z,996.63
2017-03-05T11:10:07.702Z,996.54
2017-03-05T11:11:16.422Z,996.63
2017-03-05T11:12:26.274Z,996.78
2017-03-05T11:13:36.114Z,996.79
2017-03-05T11:14:45.960Z,996.88
2017-03-05T11:15:55.817Z,996.86
2017-03-05T11:17:06.063Z,996.85
2017-03-05T11:18:15.141Z,996.75
2017-03-05T11:19:24.253Z,996.82
2017-03-05T11:20:34.109Z,996.84
2017-03-05T11:21:43.565Z,996.93
2017-03-05T11:22:53.029Z,996.98
2017-03-05T11:24:02.144Z,996.71
2017-03-05T11:25:11.634Z,996.62
2017-03-05T11:26:20.731Z,996.67
2017-03-05T11:27:30.574Z,996.68
2017-03-05T11:28:40.430Z,996.62
2017-03-05T11:29:49.509Z,996.55
2017-03-05T11:30:58.998Z,996.49
2017-03-05T11:32:08.475Z,996.57
2017-03-05T11:33:18.348Z,996.42
2017-03-05T11:34:28.191Z,996.49
2017-03-05T11:35:37.659Z,996.47
2017-03-05T11:36:46.742Z,996.41
2017-03-05T11:37:55.827Z,996.44
2017-03-05T11:39:06.065Z,996.4
2017-03-05T11:40:15.542Z,996.15
2017-03-05T11:41:25.801Z,996.28
2017-03-05T11:42:35.663Z,996.19
2017-03-05T11:43:44.749Z,996.11
2017-03-05T11:44:53.849Z,996.26
2017-03-05T11:46:03.342Z,996.27
2017-03-05T11:47:13.978Z,996.3
2017-03-05T11:48:23.056Z,996.32
2017-03-05T11:49:32.164Z,996.2
2017-03-05T11:50:42.008Z,996.3
2017-03-05T11:51:51.119Z,996.29
2017-03-05T11:53:00.197Z,996.26
2017-03-05T11:54:10.037Z,996.18
2017-03-05T11:55:19.492Z,996.13
2017-03-05T11:56:28.963Z,996.24
2017-03-05T11:57:38.797Z,996.28
2017-03-05T11:58:48.666Z,996.14
2017-03-05T11:59:58.157Z,996.17
2017-03-05T12:01:07.249Z,996.07
2017-03-05T12:02:15.958Z,996.04
2017-03-05T12:03:25.447Z,996.16
2017-03-05T12:04:34.944Z,996.02
2017-03-05T12:05:44.024Z,996.01
2017-03-05T12:06:53.511Z,996.02
2017-03-05T12:08:02.974Z,996.03
2017-03-05T12:09:12.433Z,996.02
2017-03-05T12:10:22.268Z,995.86
2017-03-05T12:11:31.731Z,995.81
2017-03-05T12:12:41.600Z,995.64
2017-03-05T12:13:50.303Z,995.88
2017-03-05T12:14:59.782Z,995.9
2017-03-05T12:16:09.689Z,995.95
2017-03-05T12:17:18.767Z,995.72
2017-03-05T12:18:28.628Z,995.81
2017-03-05T12:19:38.486Z,995.75
2017-03-05T12:20:47.566Z,995.78
2017-03-05T12:21:56.277Z,995.75
2017-03-05T12:23:05.735Z,995.73
2017-03-05T12:24:14.812Z,995.55
2017-03-05T12:25:24.273Z,995.48
2017-03-05T12:26:33.732Z,995.67
2017-03-05T12:27:43.197Z,995.83
2017-03-05T12:28:53.039Z,995.76
2017-03-05T12:30:02.914Z,995.77
2017-03-05T12:31:12.364Z,995.77
2017-03-05T12:32:22.204Z,995.71
2017-03-05T12:33:32.431Z,995.67
2017-03-05T12:34:42.667Z,995.62
2017-03-05T12:35:52.525Z,995.74
2017-03-05T12:37:02.360Z,995.76
2017-03-05T12:38:11.866Z,995.73
2017-03-05T12:39:21.330Z,995.67
2017-03-05T12:40:31.197Z,995.64
2017-03-05T12:41:40.675Z,995.67
2017-03-05T12:42:50.895Z,995.61
2017-03-05T12:44:00.737Z,995.45
2017-03-05T12:45:10.197Z,995.49
2017-03-05T12:46:20.101Z,995.62
2017-03-05T12:47:29.942Z,995.57
2017-03-05T12:48:39.439Z,995.44
2017-03-05T12:49:49.305Z,995.41
2017-03-05T12:50:58.412Z,995.47
2017-03-05T12:52:08.632Z,995.54
2017-03-05T12:53:19.249Z,995.49
2017-03-05T12:54:28.710Z,995.53
2017-03-05T12:55:38.173Z,995.38
2017-03-05T12:56:47.658Z,995.33
2017-03-05T12:57:56.752Z,995.26
2017-03-05T12:59:06.987Z,995.23
2017-03-05T13:00:16.890Z,995.13
2017-03-05T13:01:27.143Z,995.19
2017-03-05T13:02:36.220Z,995.14
2017-03-05T13:03:46.072Z,995.04
2017-03-05T13:04:55.906Z,995.1
2017-03-05T13:06:05.004Z,995.07
2017-03-05T13:07:14.474Z,995.06
2017-03-05T13:08:24.782Z,995.14
2017-03-05T13:09:34.263Z,995.07
2017-03-05T13:10:44.111Z,994.99
2017-03-05T13:11:53.575Z,995.07
2017-03-05T13:13:03.072Z,995.04
2017-03-05T13:14:12.918Z,994.98
2017-03-05T13:15:22.765Z,995.03
2017-03-05T13:16:32.237Z,995.07
2017-03-05T13:17:41.716Z,995.03
2017-03-05T13:18:51.558Z,995
2017-03-05T13:20:00.267Z,995.07
2017-03-05T13:21:10.100Z,995.07
2017-03-05T13:22:19.614Z,995.1
2017-03-05T13:23:29.472Z,995.1
2017-03-05T13:24:38.942Z,995.02
2017-03-05T13:25:48.036Z,995.03
2017-03-05T13:26:57.519Z,995.06
2017-03-05T13:28:06.989Z,995.01
2017-03-05T13:29:16.826Z,994.96
2017-03-05T13:30:26.295Z,994.94
2017-03-05T13:31:34.998Z,994.96
2017-03-05T13:32:44.092Z,994.95
2017-03-05T13:33:53.942Z,994.94
2017-03-05T13:35:03.042Z,994.81
2017-03-05T13:36:12.510Z,994.78
2017-03-05T13:37:21.993Z,994.83
2017-03-05T13:38:31.071Z,994.78
2017-03-05T13:39:40.915Z,994.68
2017-03-05T13:40:50.369Z,994.66
2017-03-05T13:41:59.844Z,994.63
2017-03-05T13:43:09.697Z,994.62
2017-03-05T13:44:19.547Z,994.53
2017-03-05T13:45:29.403Z,994.52
2017-03-05T13:46:38.488Z,994.48
2017-03-05T13:47:47.617Z,994.5
2017-03-05T13:48:56.686Z,994.49
2017-03-05T13:50:05.772Z,994.43
2017-03-05T13:51:14.865Z,994.51
2017-03-05T13:52:25.121Z,994.45
2017-03-05T13:53:34.194Z,994.44
2017-03-05T13:54:43.286Z,994.36
2017-03-05T13:55:53.124Z,994.41
2017-03-05T13:57:01.850Z,994.34
2017-03-05T13:58:12.086Z,994.29
2017-03-05T13:59:21.189Z,994.18
2017-03-05T14:00:29.874Z,994.17
2017-03-05T14:01:40.104Z,994.14
2017-03-05T14:02:49.566Z,994.17
2017-03-05T14:03:59.058Z,994.17
2017-03-05T14:05:08.906Z,994.06
2017-03-05T14:06:18.003Z,993.92
2017-03-05T14:07:27.085Z,994.05
2017-03-05T14:08:36.540Z,993.97
2017-03-05T14:09:46.390Z,993.96
2017-03-05T14:10:55.458Z,993.96
2017-03-05T14:12:04.913Z,993.9
2017-03-05T14:13:14.743Z,993.9
2017-03-05T14:14:23.835Z,993.92
2017-03-05T14:15:33.312Z,993.92
2017-03-05T14:16:42.009Z,993.92
2017-03-05T14:17:51.874Z,993.94
2017-03-05T14:19:00.960Z,993.95
2017-03-05T14:20:10.820Z,994
2017-03-05T14:21:20.288Z,993.95
2017-03-05T14:22:29.756Z,993.99
2017-03-05T14:23:38.839Z,993.91
2017-03-05T14:24:48.307Z,993.93
2017-03-05T14:25:58.172Z,993.97
2017-03-05T14:27:08.006Z,993.99
2017-03-05T14:28:17.490Z,993.91
2017-03-05T14:29:27.362Z,993.97